createdAt,value
2017-09-16T00:01:34.875Z,86.61
2017-09-16T00:04:02.842Z,86.55
2017-09-16T00:06:30.775Z,86.26
2017-09-16T00:08:58.690Z,86.35
2017-09-16T00:11:26.997Z,85.84
2017-09-16T00:13:55.016Z,87.25
2017-09-16T00:16:22.975Z,86.90
2017-09-16T00:18:50.877Z,87.42
2017-09-16T00:21:19.356Z,86.98
2017-09-16T00:23:48.629Z,87.60
2017-09-16T00:26:16.539Z,87.52
2017-09-16T00:28:44.487Z,87.37
2017-09-16T00:31:12.393Z,87.20
2017-09-16T00:33:40.286Z,87.33
2017-09-16T00:36:08.264Z,87.92
2017-09-16T00:38:36.227Z,87.39
2017-09-16T00:41:04.132Z,87.20
2017-09-16T00:43:32.475Z,86.70
2017-09-16T00:46:00.447Z,86.71
2017-09-16T00:48:28.349Z,87.12
2017-09-16T00:50:56.683Z,88.09
2017-09-16T00:53:24.662Z,88.12
2017-09-16T00:55:52.572Z,88.44
2017-09-16T00:58:20.504Z,88.34
2017-09-16T01:00:48.411Z,88.11
2017-09-16T01:03:16.438Z,88.35
2017-09-16T01:05:44.371Z,88.36
2017-09-16T01:08:12.402Z,88.47
2017-09-16T01:10:40.752Z,88.01
2017-09-16T01:13:08.723Z,87.88
2017-09-16T01:15:36.628Z,87.41
2017-09-16T01:18:04.616Z,87.77
2017-09-16T01:20:32.618Z,87.98
2017-09-16T01:23:00.553Z,87.93
2017-09-16T01:25:28.451Z,88.13
2017-09-16T01:27:56.365Z,88.17
2017-09-16T01:30:24.656Z,88.35
2017-09-16T01:32:52.557Z,88.24
2017-09-16T01:35:20.510Z,88.64
2017-09-16T01:37:48.420Z,88.84
2017-09-16T01:40:16.316Z,88.71
2017-09-16T01:42:44.623Z,89.15
2017-09-16T01:45:12.528Z,88.75
2017-09-16T01:47:40.483Z,88.69
2017-09-16T01:50:08.411Z,88.89
2017-09-16T01:52:36.329Z,88.87
2017-09-16T01:55:04.229Z,88.47
2017-09-16T01:57:32.547Z,88.78
2017-09-16T02:00:00.455Z,88.41
2017-09-16T02:02:28.411Z,88.64
2017-09-16T02:04:56.382Z,88.25
2017-09-16T02:07:24.289Z,89.00
2017-09-16T02:09:52.195Z,88.87
2017-09-16T02:12:20.184Z,88.69
2017-09-16T02:14:48.149Z,88.89
2017-09-16T02:17:16.042Z,88.81
2017-09-16T02:19:44.355Z,88.75
2017-09-16T02:22:12.351Z,89.11
2017-09-16T02:24:40.243Z,89.17
2017-09-16T02:27:08.202Z,88.94
2017-09-16T02:29:36.120Z,88.92
2017-09-16T02:32:04.010Z,88.48
2017-09-16T02:34:31.991Z,88.81
2017-09-16T02:36:59.889Z,89.32
2017-09-16T02:39:28.240Z,89.37
2017-09-16T02:41:56.212Z,89.61
2017-09-16T02:44:24.283Z,89.54
2017-09-16T02:46:52.260Z,89.63
2017-09-16T02:49:20.215Z,89.54
2017-09-16T02:51:48.149Z,89.61
2017-09-16T02:54:16.043Z,89.38
2017-09-16T02:56:44.001Z,89.60
2017-09-16T02:59:12.003Z,89.38
2017-09-16T03:01:40.107Z,89.50
2017-09-16T03:04:08.043Z,89.92
2017-09-16T03:06:35.995Z,89.79
2017-09-16T03:09:03.896Z,89.39
2017-09-16T03:11:32.204Z,89.10
2017-09-16T03:14:00.112Z,89.67
2017-09-16T03:16:28.002Z,89.22
2017-09-16T03:18:55.919Z,89.09
2017-09-16T03:21:24.022Z,89.08
2017-09-16T03:23:51.919Z,88.65
2017-09-16T03:26:20.273Z,89.02
2017-09-16T03:28:48.235Z,89.17
2017-09-16T03:31:16.138Z,89.35
2017-09-16T03:33:44.445Z,90.30
2017-09-16T03:36:12.335Z,91.13
2017-09-16T03:38:40.236Z,90.72
2017-09-16T03:41:08.153Z,90.38
2017-09-16T03:43:36.116Z,90.88
2017-09-16T03:46:04.127Z,90.97
2017-09-16T03:48:32.463Z,91.32
2017-09-16T03:51:00.359Z,90.79
2017-09-16T03:53:28.267Z,90.94
2017-09-16T03:55:56.623Z,91.11
2017-09-16T03:58:24.534Z,90.99
2017-09-16T04:00:52.451Z,91.02
2017-09-16T04:03:20.414Z,90.95
2017-09-16T04:05:48.374Z,90.87
2017-09-16T04:08:16.308Z,90.49
2017-09-16T04:10:44.251Z,90.71
2017-09-16T04:13:12.538Z,89.99
2017-09-16T04:15:40.461Z,90.51
2017-09-16T04:18:08.448Z,90.32
2017-09-16T04:20:36.374Z,90.32
2017-09-16T04:23:04.273Z,90.50
2017-09-16T04:25:32.196Z,90.98
2017-09-16T04:28:00.411Z,91.24
2017-09-16T04:30:28.371Z,91.60
2017-09-16T04:32:56.273Z,91.64
2017-09-16T04:35:24.639Z,91.32
2017-09-16T04:37:52.584Z,91.26
2017-09-16T04:40:20.575Z,91.38
2017-09-16T04:42:48.481Z,91.43
2017-09-16T04:45:16.375Z,91.29
2017-09-16T04:47:44.280Z,91.13
2017-09-16T04:50:12.179Z,91.10
2017-09-16T04:52:40.113Z,90.79
2017-09-16T04:55:08.002Z,90.86
2017-09-16T04:57:36.330Z,90.81
2017-09-16T05:00:04.258Z,90.92
2017-09-16T05:02:32.190Z,90.79
2017-09-16T05:05:00.084Z,91.25
2017-09-16T05:07:28.406Z,90.81
2017-09-16T05:09:56.296Z,90.75
2017-09-16T05:12:24.183Z,90.86
2017-09-16T05:14:52.931Z,90.87
2017-09-16T05:17:20.946Z,91.34
2017-09-16T05:19:49.234Z,91.57
2017-09-16T05:22:17.147Z,90.05
2017-09-16T05:24:45.055Z,84.49
2017-09-16T05:27:13.410Z,83.97
2017-09-16T05:29:41.311Z,78.56
2017-09-16T05:32:09.711Z,75.75
2017-09-16T05:34:37.636Z,72.07
2017-09-16T05:37:05.586Z,67.79
2017-09-16T05:39:33.504Z,63.68
2017-09-16T05:42:01.493Z,62.62
2017-09-16T05:44:29.497Z,57.46
2017-09-16T05:46:57.415Z,54.98
2017-09-16T05:49:25.456Z,54.63
2017-09-16T05:51:53.807Z,52.97
2017-09-16T05:54:21.749Z,54.68
2017-09-16T05:56:49.749Z,51.31
2017-09-16T05:59:17.651Z,48.69
2017-09-16T06:01:45.954Z,46.14
2017-09-16T06:04:13.860Z,47.14
2017-09-16T06:06:41.789Z,44.32
2017-09-16T06:09:09.803Z,41.88
2017-09-16T06:11:37.726Z,40.97
2017-09-16T06:14:05.619Z,39.28
2017-09-16T06:16:33.656Z,39.35
2017-09-16T06:19:01.675Z,37.59
2017-09-16T06:21:29.638Z,34.77
2017-09-16T06:23:57.573Z,34.83
2017-09-16T06:26:25.580Z,33.17
2017-09-16T06:28:53.557Z,31.06
2017-09-16T06:31:21.475Z,30.22
2017-09-16T06:33:49.386Z,31.39
2017-09-16T06:36:17.297Z,31.77
2017-09-16T06:38:45.321Z,30.70
2017-09-16T06:41:13.240Z,29.78
2017-09-16T06:43:41.158Z,28.92
2017-09-16T06:46:09.233Z,28.10
2017-09-16T06:48:37.152Z,26.58
2017-09-16T06:51:05.070Z,27.77
2017-09-16T06:53:33.028Z,26.36
2017-09-16T06:56:00.987Z,26.85
2017-09-16T06:58:28.934Z,26.73
2017-09-16T07:00:56.946Z,25.73
2017-09-16T07:03:24.868Z,27.17
2017-09-16T07:05:52.779Z,28.25
2017-09-16T07:08:20.680Z,27.48
2017-09-16T07:10:48.620Z,26.42
2017-09-16T07:13:16.574Z,27.61
2017-09-16T07:15:44.576Z,25.54
2017-09-16T07:18:12.873Z,23.88
2017-09-16T07:20:40.885Z,25.82
2017-09-16T07:23:08.962Z,25.42
2017-09-16T07:25:36.885Z,24.32
2017-09-16T07:28:04.803Z,22.89
2017-09-16T07:30:32.723Z,21.67
2017-09-16T07:33:00.632Z,23.68
2017-09-16T07:35:28.552Z,23.08
2017-09-16T07:37:56.450Z,24.03
2017-09-16T07:40:24.384Z,22.30
2017-09-16T07:42:52.280Z,25.33
2017-09-16T07:45:20.188Z,24.16
2017-09-16T07:47:48.099Z,24.22
2017-09-16T07:50:15.990Z,22.74
2017-09-16T07:52:43.891Z,22.79
2017-09-16T07:55:12.210Z,23.20
2017-09-16T07:57:40.116Z,22.45
2017-09-16T08:00:08.027Z,23.22
2017-09-16T08:02:35.936Z,23.43
2017-09-16T08:05:03.906Z,21.96
2017-09-16T08:07:31.828Z,20.35
2017-09-16T08:09:59.739Z,21.98
2017-09-16T08:12:27.691Z,20.86
2017-09-16T08:14:55.690Z,22.04
2017-09-16T08:17:23.590Z,22.00
2017-09-16T08:19:51.916Z,22.29
2017-09-16T08:22:20.819Z,22.90
2017-09-16T08:24:48.727Z,25.95
2017-09-16T08:27:16.659Z,23.58
2017-09-16T08:29:44.586Z,22.93
2017-09-16T08:32:12.604Z,23.18
2017-09-16T08:34:40.577Z,22.23
2017-09-16T08:37:08.640Z,22.52
2017-09-16T08:39:36.560Z,21.42
2017-09-16T08:42:04.454Z,21.80
2017-09-16T08:44:32.634Z,22.24
2017-09-16T08:47:00.611Z,22.39
2017-09-16T08:49:28.674Z,22.12
2017-09-16T08:51:57.381Z,21.62
2017-09-16T08:54:25.356Z,21.92
2017-09-16T08:56:53.339Z,21.79
2017-09-16T08:59:21.690Z,22.41
2017-09-16T09:01:49.663Z,22.18
2017-09-16T09:04:17.591Z,20.84
2017-09-16T09:06:45.513Z,21.72
2017-09-16T09:09:13.411Z,21.26
2017-09-16T09:11:41.328Z,22.33
2017-09-16T09:14:09.237Z,22.90
2017-09-16T09:16:37.571Z,22.55
2017-09-16T09:19:05.479Z,22.81
2017-09-16T09:21:33.386Z,21.69
2017-09-16T09:24:01.311Z,22.43
2017-09-16T09:26:29.675Z,24.70
2017-09-16T09:28:58.330Z,24.36
2017-09-16T09:31:26.347Z,24.92
2017-09-16T09:33:54.671Z,24.69
2017-09-16T09:36:22.599Z,24.47
2017-09-16T09:38:50.514Z,22.54
2017-09-16T09:41:18.492Z,24.79
2017-09-16T09:43:46.448Z,23.22
2017-09-16T09:46:14.355Z,23.59
2017-09-16T09:48:42.671Z,24.99
2017-09-16T09:51:10.671Z,25.77
2017-09-16T09:53:38.583Z,27.21
2017-09-16T09:56:06.519Z,28.93
2017-09-16T09:58:34.437Z,29.73
2017-09-16T10:01:02.360Z,30.02
2017-09-16T10:03:30.264Z,30.20
2017-09-16T10:05:59.296Z,30.57
2017-09-16T10:08:27.256Z,28.69
2017-09-16T10:10:55.273Z,26.96
2017-09-16T10:13:23.632Z,26.45
2017-09-16T10:15:51.591Z,27.02
2017-09-16T10:18:19.490Z,27.09
2017-09-16T10:20:47.815Z,28.12
2017-09-16T10:23:15.729Z,28.96
2017-09-16T10:25:44.037Z,30.70
2017-09-16T10:28:12.059Z,31.72
2017-09-16T10:30:39.958Z,31.64
2017-09-16T10:33:08.250Z,30.95
2017-09-16T10:35:36.227Z,30.38
2017-09-16T10:38:04.244Z,30.70
2017-09-16T10:40:32.199Z,30.32
2017-09-16T10:43:00.110Z,30.38
2017-09-16T10:45:28.037Z,30.92
2017-09-16T10:47:56.002Z,31.03
2017-09-16T10:50:23.927Z,30.07
2017-09-16T10:52:51.841Z,29.14
2017-09-16T10:55:20.613Z,30.81
2017-09-16T10:57:48.515Z,29.56
2017-09-16T11:00:16.901Z,28.38
2017-09-16T11:02:45.224Z,27.70
2017-09-16T11:05:13.177Z,28.80
2017-09-16T11:07:41.155Z,31.16
2017-09-16T11:10:09.178Z,33.43
2017-09-16T11:12:37.491Z,35.19
2017-09-16T11:15:05.408Z,37.13
2017-09-16T11:17:33.324Z,37.99
2017-09-16T11:20:01.241Z,39.53
2017-09-16T11:22:29.220Z,40.99
2017-09-16T11:24:57.128Z,41.86
2017-09-16T11:27:25.066Z,42.13
2017-09-16T11:29:53.381Z,43.42
2017-09-16T11:32:21.302Z,44.78
2017-09-16T11:34:49.224Z,46.14
2017-09-16T11:37:17.268Z,47.17
2017-09-16T11:39:45.203Z,46.04
2017-09-16T11:42:13.217Z,46.67
2017-09-16T11:44:41.158Z,45.88
2017-09-16T11:47:09.489Z,45.01
2017-09-16T11:49:37.409Z,44.34
2017-09-16T11:52:05.703Z,43.99
2017-09-16T11:54:33.661Z,44.03
2017-09-16T11:57:01.583Z,43.07
2017-09-16T11:59:29.519Z,42.14
2017-09-16T12:01:57.450Z,42.59
2017-09-16T12:04:25.757Z,42.86
2017-09-16T12:06:53.675Z,42.48
2017-09-16T12:09:21.605Z,42.42
2017-09-16T12:11:49.556Z,42.77
2017-09-16T12:14:17.488Z,43.82
2017-09-16T12:16:45.416Z,42.63
2017-09-16T12:19:13.340Z,44.12
2017-09-16T12:21:41.653Z,44.26
2017-09-16T12:24:09.560Z,45.02
2017-09-16T12:26:37.485Z,45.59
2017-09-16T12:29:05.392Z,44.97
2017-09-16T12:31:33.325Z,45.37
2017-09-16T12:34:01.243Z,45.96
2017-09-16T12:36:29.178Z,45.18
2017-09-16T12:38:57.110Z,44.50
2017-09-16T12:41:25.013Z,45.15
2017-09-16T12:43:52.919Z,45.60
2017-09-16T12:46:21.485Z,46.26
2017-09-16T12:48:49.402Z,45.24
2017-09-16T12:51:17.422Z,45.54
2017-09-16T12:53:45.493Z,45.95
2017-09-16T12:56:13.407Z,46.59
2017-09-16T12:58:41.363Z,46.96
2017-09-16T13:01:09.280Z,45.93
2017-09-16T13:03:37.195Z,45.28
2017-09-16T13:06:05.504Z,44.06
2017-09-16T13:08:33.407Z,44.23
2017-09-16T13:11:01.324Z,44.84
2017-09-16T13:13:29.234Z,45.34
2017-09-16T13:15:57.157Z,44.98
2017-09-16T13:18:25.131Z,45.51
2017-09-16T13:20:53.094Z,45.46
2017-09-16T13:23:20.991Z,46.10
2017-09-16T13:25:48.926Z,46.92
2017-09-16T13:28:16.865Z,46.46
2017-09-16T13:30:44.787Z,46.02
2017-09-16T13:33:12.771Z,45.10
2017-09-16T13:35:40.683Z,44.72
2017-09-16T13:38:09.048Z,44.03
2017-09-16T13:40:36.966Z,43.08
2017-09-16T13:43:04.925Z,43.47
2017-09-16T13:45:32.899Z,42.97
2017-09-16T13:48:00.808Z,42.59
2017-09-16T13:50:28.754Z,42.59
2017-09-16T13:52:56.705Z,43.25
2017-09-16T13:55:24.683Z,44.58
2017-09-16T13:57:52.588Z,44.68
2017-09-16T14:00:20.508Z,44.84
2017-09-16T14:02:48.511Z,44.70
2017-09-16T14:05:16.449Z,45.01
2017-09-16T14:07:44.355Z,44.56
2017-09-16T14:10:12.285Z,44.53
2017-09-16T14:12:40.205Z,44.60
2017-09-16T14:15:08.531Z,44.75
2017-09-16T14:17:36.484Z,44.86
2017-09-16T14:20:04.426Z,44.56
2017-09-16T14:22:32.335Z,43.92
2017-09-16T14:25:00.260Z,44.04
2017-09-16T14:27:28.592Z,43.65
2017-09-16T14:29:56.500Z,44.91
2017-09-16T14:32:24.808Z,45.30
2017-09-16T14:34:52.711Z,45.56
2017-09-16T14:39:55.085Z,46.72
2017-09-16T14:42:23.012Z,46.91
2017-09-16T14:44:51.318Z,47.07
2017-09-16T14:47:19.331Z,47.02
2017-09-16T14:49:47.303Z,46.63
2017-09-16T14:52:15.228Z,46.54
2017-09-16T14:54:43.232Z,46.99
2017-09-16T14:57:11.160Z,46.45
2017-09-16T14:59:39.191Z,46.30
2017-09-16T15:02:07.508Z,46.04
2017-09-16T15:04:35.411Z,45.82
2017-09-16T15:07:03.343Z,46.28
2017-09-16T15:09:31.261Z,46.66
2017-09-16T15:11:59.167Z,46.57
2017-09-16T15:14:27.149Z,46.24
2017-09-16T15:16:55.086Z,44.61
2017-09-16T15:19:23.627Z,45.03
2017-09-16T15:21:51.554Z,44.95
2017-09-16T15:24:19.473Z,44.61
2017-09-16T15:26:47.418Z,44.10
2017-09-16T15:29:15.500Z,44.02
2017-09-16T15:31:43.428Z,43.68
2017-09-16T15:34:11.360Z,43.65
2017-09-16T15:36:40.160Z,44.32
2017-09-16T15:39:08.500Z,44.97
2017-09-16T15:41:36.449Z,45.01
2017-09-16T15:44:04.454Z,44.88
2017-09-16T15:46:32.373Z,45.17
2017-09-16T15:49:00.332Z,45.29
2017-09-16T15:51:28.243Z,44.74
2017-09-16T15:53:56.323Z,44.82
2017-09-16T15:56:24.294Z,45.32
2017-09-16T15:58:52.263Z,45.85
2017-09-16T16:01:20.175Z,45.73
2017-09-16T16:03:48.100Z,45.80
2017-09-16T16:06:16.067Z,46.61
2017-09-16T16:08:43.975Z,47.38
2017-09-16T16:11:11.886Z,47.80
2017-09-16T16:13:39.838Z,47.66
2017-09-16T16:16:07.774Z,48.44
2017-09-16T16:18:36.116Z,48.99
2017-09-16T16:21:04.027Z,48.78
2017-09-16T16:23:31.937Z,48.99
2017-09-16T16:25:59.875Z,48.92
2017-09-16T16:28:27.791Z,48.92
2017-09-16T16:30:55.710Z,49.82
2017-09-16T16:33:23.737Z,49.98
2017-09-16T16:35:51.648Z,50.87
2017-09-16T16:38:19.559Z,51.65
2017-09-16T16:40:47.479Z,52.12
2017-09-16T16:43:15.380Z,51.92
2017-09-16T16:45:43.301Z,52.37
2017-09-16T16:48:11.604Z,53.07
2017-09-16T16:50:39.535Z,53.60
2017-09-16T16:53:07.835Z,54.20
2017-09-16T16:55:35.736Z,54.20
2017-09-16T16:58:03.675Z,54.75
2017-09-16T17:00:31.612Z,54.97
2017-09-16T17:02:59.919Z,55.52
2017-09-16T17:05:27.827Z,55.83
2017-09-16T17:07:55.748Z,56.14
2017-09-16T17:10:23.771Z,56.87
2017-09-16T17:12:51.702Z,57.51
2017-09-16T17:15:19.703Z,57.67
2017-09-16T17:17:47.617Z,58.48
2017-09-16T17:20:15.540Z,59.11
2017-09-16T17:22:43.465Z,59.53
2017-09-16T17:25:11.434Z,59.83
2017-09-16T17:27:39.380Z,60.03
2017-09-16T17:30:07.287Z,60.65
2017-09-16T17:32:35.283Z,61.13
2017-09-16T17:35:03.267Z,61.63
2017-09-16T17:37:31.592Z,62.40
2017-09-16T17:39:59.498Z,62.62
2017-09-16T17:42:27.461Z,63.13
2017-09-16T17:44:55.367Z,63.75
2017-09-16T17:47:23.268Z,64.33
2017-09-16T17:49:51.184Z,65.03
2017-09-16T17:52:19.099Z,65.49
2017-09-16T17:54:47.044Z,65.76
2017-09-16T17:57:15.348Z,65.99
2017-09-16T17:59:43.254Z,66.35
2017-09-16T18:02:11.196Z,66.53
2017-09-16T18:04:39.188Z,66.96
2017-09-16T18:07:07.100Z,67.47
2017-09-16T18:09:35.009Z,67.90
2017-09-16T18:12:02.920Z,68.03
2017-09-16T18:14:31.232Z,68.68
2017-09-16T18:16:59.153Z,69.10
2017-09-16T18:19:27.464Z,69.47
2017-09-16T18:21:55.599Z,69.60
2017-09-16T18:26:57.832Z,70.01
2017-09-16T18:29:25.745Z,70.19
2017-09-16T18:31:53.704Z,70.49
2017-09-16T18:34:21.609Z,70.71
2017-09-16T18:36:49.920Z,70.86
2017-09-16T18:39:17.858Z,71.00
2017-09-16T18:41:45.847Z,71.33
2017-09-16T18:44:13.764Z,71.56
2017-09-16T18:46:41.692Z,71.98
2017-09-16T18:49:09.599Z,72.23
2017-09-16T18:51:37.548Z,72.41
2017-09-16T18:54:05.458Z,72.71
2017-09-16T18:56:33.786Z,72.95
2017-09-16T18:59:01.772Z,73.23
2017-09-16T19:01:29.683Z,73.35
2017-09-16T19:03:57.605Z,73.61
2017-09-16T19:06:25.548Z,73.91
2017-09-16T19:08:53.473Z,74.19
2017-09-16T19:11:21.807Z,74.33
2017-09-16T19:13:49.791Z,74.41
2017-09-16T19:16:17.710Z,74.55
2017-09-16T19:18:45.681Z,75.18
2017-09-16T19:21:13.584Z,75.32
2017-09-16T19:23:41.484Z,75.30
2017-09-16T19:26:09.817Z,74.95
2017-09-16T19:28:37.750Z,75.16
2017-09-16T19:31:05.676Z,75.13
2017-09-16T19:33:33.595Z,75.01
2017-09-16T19:36:01.515Z,74.74
2017-09-16T19:38:29.422Z,74.66
2017-09-16T19:40:57.372Z,74.41
2017-09-16T19:43:25.292Z,74.07
2017-09-16T19:45:53.244Z,74.14
2017-09-16T19:48:21.217Z,74.05
2017-09-16T19:50:49.133Z,74.11
2017-09-16T19:53:17.052Z,73.67
2017-09-16T19:55:45.112Z,73.51
2017-09-16T19:58:13.532Z,73.34
2017-09-16T20:00:41.517Z,73.20
2017-09-16T20:03:09.720Z,73.00
2017-09-16T20:05:37.699Z,72.93
2017-09-16T20:08:05.647Z,72.82
2017-09-16T20:10:33.687Z,72.40
2017-09-16T20:13:01.594Z,72.20
2017-09-16T20:15:29.742Z,72.12
2017-09-16T20:17:57.782Z,72.17
2017-09-16T20:20:25.875Z,71.74
2017-09-16T20:22:53.894Z,72.11
2017-09-16T20:25:21.840Z,71.41
2017-09-16T20:27:50.191Z,71.68
2017-09-16T20:30:18.108Z,71.74
2017-09-16T20:32:46.180Z,72.14
2017-09-16T20:35:14.096Z,72.38
2017-09-16T20:37:42.000Z,73.02
2017-09-16T20:40:10.038Z,72.81
2017-09-16T20:42:38.099Z,73.09
2017-09-16T20:45:06.171Z,73.68
2017-09-16T20:47:34.253Z,73.91
2017-09-16T20:50:02.269Z,74.46
2017-09-16T20:52:30.238Z,75.28
2017-09-16T20:54:58.935Z,75.91
2017-09-16T20:57:26.930Z,76.10
2017-09-16T20:59:54.857Z,76.32
2017-09-16T21:02:22.788Z,76.87
2017-09-16T21:04:50.712Z,77.09
2017-09-16T21:07:18.636Z,77.18
2017-09-16T21:09:46.994Z,77.43
2017-09-16T21:12:14.909Z,77.58
2017-09-16T21:14:42.812Z,77.75
2017-09-16T21:17:10.785Z,77.91
2017-09-16T21:19:38.682Z,77.73
2017-09-16T21:22:06.999Z,78.48
2017-09-16T21:24:35.117Z,78.32
2017-09-16T21:27:03.435Z,78.42
2017-09-16T21:29:31.419Z,78.75
2017-09-16T21:31:59.333Z,78.41
2017-09-16T21:34:27.251Z,78.57
2017-09-16T21:36:55.889Z,79.13
2017-09-16T21:39:24.208Z,79.55
2017-09-16T21:41:52.129Z,79.86
2017-09-16T21:44:20.091Z,79.87
2017-09-16T21:46:48.004Z,79.76
2017-09-16T21:49:15.938Z,79.16
2017-09-16T21:51:43.844Z,79.96
2017-09-16T21:54:11.747Z,80.41
2017-09-16T21:56:39.655Z,80.14
2017-09-16T21:59:07.969Z,79.45
2017-09-16T22:01:35.964Z,80.56
2017-09-16T22:04:03.903Z,80.08
2017-09-16T22:06:31.804Z,79.66
2017-09-16T22:08:59.728Z,80.33
2017-09-16T22:11:27.636Z,81.34
2017-09-16T22:13:56.258Z,81.36
2017-09-16T22:16:24.569Z,80.73
2017-09-16T22:18:52.472Z,82.01
2017-09-16T22:21:20.391Z,82.30
2017-09-16T22:23:48.415Z,82.40
2017-09-16T22:26:16.330Z,82.04
2017-09-16T22:28:44.362Z,81.97
2017-09-16T22:31:12.259Z,81.88
2017-09-16T22:33:40.156Z,81.35
2017-09-16T22:36:08.246Z,81.21
2017-09-16T22:38:36.174Z,81.32
2017-09-16T22:41:04.075Z,82.01
2017-09-16T22:43:32.048Z,83.58
2017-09-16T22:45:59.980Z,83.63
2017-09-16T22:48:28.012Z,82.91
2017-09-16T22:50:55.925Z,84.52
2017-09-16T22:53:23.855Z,84.07
2017-09-16T22:55:52.175Z,83.82
2017-09-16T22:58:20.171Z,84.35
2017-09-16T23:00:48.102Z,84.44
2017-09-16T23:03:16.107Z,84.24
2017-09-16T23:05:44.080Z,83.94
2017-09-16T23:08:12.064Z,83.91
2017-09-16T23:10:40.024Z,84.13
2017-09-16T23:13:07.936Z,84.11
2017-09-16T23:15:35.848Z,83.82
2017-09-16T23:18:03.768Z,84.55
2017-09-16T23:20:31.806Z,83.89
2017-09-16T23:22:59.723Z,84.21
2017-09-16T23:25:27.689Z,83.90
2017-09-16T23:27:55.699Z,83.95
2017-09-16T23:30:23.635Z,84.65
2017-09-16T23:32:51.533Z,84.17
2017-09-16T23:35:19.534Z,83.80
2017-09-16T23:37:47.924Z,83.32
2017-09-16T23:40:15.869Z,84.83
2017-09-16T23:42:44.195Z,84.85
2017-09-16T23:45:12.113Z,85.20
2017-09-16T23:47:40.046Z,84.87
2017-09-16T23:50:07.970Z,85.00
2017-09-16T23:52:35.875Z,84.62
2017-09-16T23:55:03.795Z,85.59
2017-09-16T23:57:32.444Z,85.24
